Time;durP1;ratioP1;P1;durP2;ratioP2;P2;SDS_P1;SDS_P2;PMS_P1;PMS_P2;Temp;Humidity;BMP_temperature;BMP_pressure;BME280_temperature;BME280_humidity;BME280_pressure;Samples;Min_cycle;Max_cycle;Signal;HPM_P1;HPM_P2
2022/08/29 00:02:40;;;;;;;9.30;8.50;;;20.30;99.90;;;;;;10423331;28;20245;-82
2022/08/29 00:07:42;;;;;;;8.40;7.70;;;20.30;99.90;;;;;;10394825;28;20222;-83
2022/08/29 00:12:44;;;;;;;8.80;8.10;;;20.20;99.90;;;;;;10385848;28;20226;-82
2022/08/29 00:17:48;;;;;;;8.60;7.80;;;20.20;99.90;;;;;;10391570;28;20381;-82
2022/08/29 00:22:50;;;;;;;9.30;8.50;;;20.20;99.90;;;;;;10395174;28;20203;-83
2022/08/29 00:27:52;;;;;;;8.50;7.80;;;20.10;99.90;;;;;;10389576;28;20213;-83
2022/08/29 00:32:56;;;;;;;8.57;7.87;;;20.10;99.90;;;;;;10401556;28;20198;-82
2022/08/29 00:37:58;;;;;;;9.10;8.40;;;20.00;99.90;;;;;;10396534;28;20293;-82
2022/08/29 00:43:00;;;;;;;9.93;8.93;;;20.00;99.90;;;;;;10397379;28;20237;-82
2022/08/29 00:48:07;;;;;;;11.00;8.70;;;20.00;99.90;;;;;;10389339;28;20233;-82
2022/08/29 00:53:13;;;;;;;8.50;7.90;;;19.90;99.90;;;;;;10415454;28;20194;-82
2022/08/29 00:58:21;;;;;;;9.20;8.40;;;19.90;99.90;;;;;;10384064;28;20223;-82
2022/08/29 01:03:25;;;;;;;8.87;7.97;;;19.90;99.90;;;;;;10380766;28;20214;-82
2022/08/29 01:08:28;;;;;;;10.00;9.30;;;19.80;99.90;;;;;;10404446;28;20233;-81
2022/08/29 01:13:36;;;;;;;8.73;8.03;;;19.80;99.90;;;;;;10394010;28;20246;-82
2022/08/29 01:18:42;;;;;;;9.87;8.97;;;19.80;99.90;;;;;;10386743;28;20240;-82
2022/08/29 01:23:54;;;;;;;9.57;8.77;;;19.70;99.90;;;;;;10422475;28;20269;-81
2022/08/29 01:28:58;;;;;;;9.30;8.40;;;19.70;99.90;;;;;;10420338;28;20248;-81
2022/08/29 01:34:00;;;;;;;9.53;8.83;;;19.70;99.90;;;;;;10410058;28;20237;-82
2022/08/29 01:39:02;;;;;;;9.33;8.63;;;19.70;99.90;;;;;;10390822;28;20296;-82
2022/08/29 01:44:11;;;;;;;9.33;8.67;;;19.60;99.90;;;;;;10415473;28;20228;-82
2022/08/29 01:49:15;;;;;;;9.80;8.80;;;19.60;99.90;;;;;;10419564;28;20707;-82
2022/08/29 01:54:18;;;;;;;10.07;9.03;;;19.60;99.90;;;;;;10386285;28;20199;-80
2022/08/29 01:59:25;;;;;;;9.27;8.67;;;19.60;99.90;;;;;;10370016;28;20245;-82
2022/08/29 02:04:28;;;;;;;10.57;9.70;;;19.50;99.90;;;;;;10410245;28;20721;-81
2022/08/29 02:09:30;;;;;;;9.50;8.80;;;19.40;99.90;;;;;;10391272;28;20308;-83
2022/08/29 02:14:34;;;;;;;10.70;9.70;;;19.40;99.90;;;;;;10413302;28;20273;-81
2022/08/29 02:19:37;;;;;;;10.20;9.40;;;19.40;99.90;;;;;;10388847;28;20621;-81
2022/08/29 02:24:40;;;;;;;11.07;10.13;;;19.40;99.90;;;;;;10411916;28;20246;-83
2022/08/29 02:29:43;;;;;;;10.70;9.70;;;19.30;99.90;;;;;;10387237;28;20214;-82
2022/08/29 02:34:46;;;;;;;11.27;10.17;;;19.30;99.90;;;;;;10412894;28;20246;-83
2022/08/29 02:39:48;;;;;;;10.03;9.20;;;19.20;99.90;;;;;;10400969;28;20218;-84
2022/08/29 02:44:51;;;;;;;11.33;10.30;;;19.30;99.90;;;;;;10385974;28;20595;-82
2022/08/29 02:49:54;;;;;;;11.30;10.40;;;19.30;99.90;;;;;;10396797;28;20298;-84
2022/08/29 02:54:56;;;;;;;10.60;9.83;;;19.30;99.90;;;;;;10403821;28;20186;-82
2022/08/29 03:00:00;;;;;;;10.27;9.57;;;19.20;99.90;;;;;;10423460;28;20235;-84
2022/08/29 03:05:02;;;;;;;11.30;10.40;;;19.20;99.90;;;;;;10403123;28;20674;-84
2022/08/29 03:10:05;;;;;;;11.97;10.97;;;19.10;99.90;;;;;;10420839;28;20256;-84
2022/08/29 03:15:10;;;;;;;12.03;11.03;;;19.10;99.90;;;;;;10409816;28;20194;-83
2022/08/29 03:20:14;;;;;;;11.23;10.33;;;19.10;99.90;;;;;;10426194;28;20234;-83
2022/08/29 03:25:17;;;;;;;12.83;11.93;;;19.10;99.90;;;;;;10396594;28;20248;-84
2022/08/29 03:30:21;;;;;;;11.93;10.93;;;19.10;99.90;;;;;;10433261;28;20198;-84
2022/08/29 03:35:24;;;;;;;12.37;11.07;;;19.10;99.90;;;;;;10408091;28;20194;-84
2022/08/29 03:40:26;;;;;;;12.03;11.03;;;19.10;99.90;;;;;;10407911;28;20293;-82
2022/08/29 03:45:29;;;;;;;12.00;10.80;;;19.10;99.90;;;;;;10393246;28;20210;-77
2022/08/29 03:50:32;;;;;;;11.10;10.20;;;19.10;99.90;;;;;;10435679;28;20224;-84
2022/08/29 03:55:35;;;;;;;13.53;12.47;;;19.00;99.90;;;;;;10389445;28;20332;-83
2022/08/29 04:00:38;;;;;;;12.97;11.83;;;19.00;99.90;;;;;;10408252;28;20724;-84
2022/08/29 04:05:41;;;;;;;11.57;10.67;;;19.00;99.90;;;;;;10407465;28;20226;-82
2022/08/29 04:10:43;;;;;;;11.23;10.43;;;18.90;99.90;;;;;;10402394;28;20274;-83
2022/08/29 04:15:47;;;;;;;11.23;10.37;;;18.90;99.90;;;;;;10399152;28;20525;-83
2022/08/29 04:20:49;;;;;;;12.40;11.47;;;18.90;99.90;;;;;;10415684;28;20629;-81
2022/08/29 04:25:51;;;;;;;11.23;10.20;;;18.80;99.90;;;;;;10384594;28;20672;-84
2022/08/29 04:30:55;;;;;;;12.70;11.60;;;18.80;99.90;;;;;;10425326;28;20194;-83
2022/08/29 04:35:57;;;;;;;12.57;11.43;;;18.70;99.90;;;;;;10428133;28;20217;-82
2022/08/29 04:40:59;;;;;;;12.77;11.87;;;18.70;99.90;;;;;;10386830;28;20241;-81
2022/08/29 04:46:03;;;;;;;12.10;11.10;;;18.80;99.90;;;;;;10426882;28;20222;-80
2022/08/29 04:51:05;;;;;;;12.30;11.30;;;18.80;99.90;;;;;;10402883;28;20194;-82
2022/08/29 04:56:10;;;;;;;11.53;10.40;;;18.80;99.90;;;;;;10353182;28;20223;-82
2022/08/29 05:01:16;;;;;;;11.23;10.37;;;18.70;99.90;;;;;;10382270;28;20249;-84
2022/08/29 05:06:20;;;;;;;12.70;11.70;;;18.70;99.90;;;;;;10351063;28;20612;-82
2022/08/29 05:11:22;;;;;;;12.63;11.73;;;18.70;99.90;;;;;;10350478;28;20224;-83
2022/08/29 05:16:25;;;;;;;11.57;10.57;;;18.70;99.90;;;;;;10417591;28;20206;-81
2022/08/29 05:21:30;;;;;;;12.43;11.20;;;18.70;99.90;;;;;;10377871;28;20199;-84
2022/08/29 05:26:35;;;;;;;11.83;10.83;;;18.70;99.90;;;;;;10362107;28;20261;-82
2022/08/29 05:31:42;;;;;;;11.27;10.27;;;18.80;99.90;;;;;;10401945;28;20737;-82
2022/08/29 05:36:44;;;;;;;12.70;11.50;;;18.80;99.90;;;;;;10379217;28;20745;-81
2022/08/29 05:41:46;;;;;;;12.80;11.70;;;18.80;99.90;;;;;;10395018;28;20725;-81
2022/08/29 05:46:49;;;;;;;14.00;11.27;;;18.80;99.90;;;;;;10418266;28;20297;-81
2022/08/29 05:51:52;;;;;;;12.03;11.10;;;18.90;99.90;;;;;;10376594;28;20258;-81
2022/08/29 05:56:54;;;;;;;12.97;11.77;;;18.90;99.90;;;;;;10389998;28;20261;-83
2022/08/29 06:01:58;;;;;;;13.03;11.67;;;19.00;99.90;;;;;;10400094;28;20209;-84
2022/08/29 06:07:00;;;;;;;13.50;12.40;;;19.00;99.90;;;;;;10381387;28;20306;-84
2022/08/29 06:12:05;;;;;;;13.73;12.53;;;19.10;99.90;;;;;;10417051;28;20194;-81
2022/08/29 06:17:08;;;;;;;14.30;13.10;;;19.10;99.90;;;;;;10382483;28;20211;-84
2022/08/29 06:22:10;;;;;;;14.20;12.90;;;19.20;99.90;;;;;;10420427;28;20206;-84
2022/08/29 06:27:13;;;;;;;15.47;14.03;;;19.20;99.90;;;;;;10390879;28;20310;-84
2022/08/29 06:32:17;;;;;;;15.73;14.43;;;19.30;99.90;;;;;;10396514;28;20225;-84
2022/08/29 06:37:19;;;;;;;13.63;12.57;;;19.40;99.90;;;;;;10378278;28;20207;-84
2022/08/29 06:42:23;;;;;;;12.27;11.17;;;19.40;99.90;;;;;;10417083;28;20233;-84
2022/08/29 06:47:27;;;;;;;13.93;12.87;;;19.50;99.90;;;;;;10400203;28;20230;-81
2022/08/29 06:52:29;;;;;;;13.80;12.60;;;19.60;99.90;;;;;;10407903;28;20197;-80
2022/08/29 06:57:31;;;;;;;13.70;12.40;;;19.70;99.90;;;;;;10353184;28;20273;-79
2022/08/29 07:02:35;;;;;;;13.07;11.77;;;19.80;99.90;;;;;;10406628;28;20320;-80
2022/08/29 07:07:37;;;;;;;13.93;12.77;;;19.90;99.90;;;;;;10380726;28;20226;-82
2022/08/29 07:12:39;;;;;;;14.13;12.93;;;20.00;99.90;;;;;;10412467;28;20704;-82
2022/08/29 07:17:42;;;;;;;12.30;11.30;;;20.00;99.90;;;;;;10382491;28;20229;-82
2022/08/29 07:22:49;;;;;;;14.40;13.10;;;20.10;99.90;;;;;;10416179;28;20232;-82
2022/08/29 07:27:51;;;;;;;13.33;12.10;;;20.20;99.90;;;;;;10382600;28;20284;-81
2022/08/29 07:32:55;;;;;;;13.97;12.77;;;20.40;99.90;;;;;;10409527;28;20204;-82
2022/08/29 07:37:59;;;;;;;13.23;11.93;;;20.40;99.90;;;;;;10384839;28;20214;-82
2022/08/29 07:43:02;;;;;;;13.27;12.17;;;20.50;99.90;;;;;;10411533;28;20206;-82
2022/08/29 07:48:06;;;;;;;13.40;12.30;;;20.60;99.90;;;;;;10374588;28;20246;-82
2022/08/29 07:53:08;;;;;;;18.63;16.83;;;20.80;99.90;;;;;;10390111;28;20351;-82
2022/08/29 07:58:10;;;;;;;12.90;11.83;;;20.90;99.90;;;;;;10420691;28;20233;-82
2022/08/29 08:03:14;;;;;;;14.30;13.00;;;21.10;99.90;;;;;;10392569;28;20268;-81
2022/08/29 08:08:17;;;;;;;13.87;12.77;;;21.20;99.90;;;;;;10415240;28;20280;-81
2022/08/29 08:13:20;;;;;;;14.60;12.70;;;21.30;99.90;;;;;;10381101;28;20670;-83
2022/08/29 08:18:24;;;;;;;14.80;12.40;;;21.50;99.90;;;;;;10415564;28;20221;-83
2022/08/29 08:23:26;;;;;;;12.93;12.03;;;21.60;99.90;;;;;;10389657;28;20233;-81
2022/08/29 08:28:29;;;;;;;12.60;11.37;;;21.70;99.90;;;;;;10421762;28;20252;-80
2022/08/29 08:33:33;;;;;;;16.93;12.67;;;21.80;99.90;;;;;;10396646;28;20201;-80
2022/08/29 08:38:35;;;;;;;12.87;11.70;;;22.00;99.90;;;;;;10414474;28;20222;-81
2022/08/29 08:43:48;;;;;;;12.40;11.50;;;22.10;99.90;;;;;;10380440;28;20258;-82
2022/08/29 08:48:56;;;;;;;11.07;10.00;;;22.20;99.90;;;;;;10403343;28;20581;-83
2022/08/29 08:54:01;;;;;;;13.97;12.87;;;22.40;99.90;;;;;;10379850;28;20195;-84
2022/08/29 08:59:08;;;;;;;13.70;12.50;;;22.50;99.90;;;;;;10397163;28;20217;-83
2022/08/29 09:04:41;;;;;;;12.30;11.07;;;22.60;99.90;;;;;;10393170;28;20242;-81
2022/08/29 09:09:57;;;;;;;13.13;11.87;;;22.70;99.90;;;;;;10393668;28;20225;-84
2022/08/29 09:15:07;;;;;;;11.13;10.13;;;22.80;99.90;;;;;;10391321;28;20209;-83
2022/08/29 09:20:13;;;;;;;12.20;11.07;;;22.90;99.90;;;;;;10417534;28;20713;-83
2022/08/29 09:25:16;;;;;;;12.70;11.60;;;23.00;99.90;;;;;;10382209;28;20269;-83
2022/08/29 09:30:23;;;;;;;11.40;10.40;;;23.20;99.90;;;;;;10418536;28;20555;-83
2022/08/29 09:35:28;;;;;;;13.90;10.83;;;23.40;99.90;;;;;;10385122;28;20570;-82
2022/08/29 09:40:53;;;;;;;11.57;10.47;;;23.60;99.90;;;;;;10387476;28;20241;-80
2022/08/29 09:46:21;;;;;;;9.97;8.97;;;23.80;99.90;;;;;;10403490;28;20225;-82
2022/08/29 09:51:28;;;;;;;8.60;7.90;;;24.10;99.00;;;;;;10308711;28;20211;-83
2022/08/29 09:56:30;;;;;;;11.20;10.27;;;24.30;99.80;;;;;;10383297;28;20621;-84
2022/08/29 10:01:33;;;;;;;9.80;8.97;;;24.70;98.10;;;;;;10423082;28;20218;-83
2022/08/29 10:06:39;;;;;;;9.93;9.23;;;25.00;98.00;;;;;;10381048;28;20218;-83
2022/08/29 10:11:46;;;;;;;9.90;9.10;;;25.30;96.90;;;;;;10401383;28;20657;-83
2022/08/29 10:18:19;;;;;;;9.83;9.07;;;25.40;96.00;;;;;;10378418;28;20218;-83
2022/08/29 10:22:29;;;;;;;10.03;9.03;;;25.30;96.20;;;;;;10388817;28;20217;-81
2022/08/29 10:27:41;;;;;;;9.13;8.33;;;25.20;94.80;;;;;;10395459;28;20245;-82
2022/08/29 10:33:10;;;;;;;9.50;8.70;;;25.10;94.30;;;;;;10363190;28;20201;-83
2022/08/29 10:38:23;;;;;;;10.00;9.10;;;25.00;95.30;;;;;;10378944;28;20636;-83
2022/08/29 10:43:39;;;;;;;8.60;7.87;;;24.90;95.70;;;;;;10386964;28;20256;-83
2022/08/29 10:48:49;;;;;;;9.40;8.50;;;24.80;95.60;;;;;;10331529;28;20290;-83
2022/08/29 10:53:58;;;;;;;8.67;8.17;;;24.80;96.00;;;;;;10386671;28;20204;-82
2022/08/29 10:59:07;;;;;;;9.97;9.13;;;24.70;96.00;;;;;;10377431;28;20274;-84
2022/08/29 11:04:17;;;;;;;10.07;9.37;;;24.70;95.40;;;;;;10384758;28;20226;-82
2022/08/29 11:09:25;;;;;;;7.80;7.23;;;24.70;95.80;;;;;;10374672;28;20285;-84
2022/08/29 11:14:34;;;;;;;8.93;8.33;;;24.70;95.30;;;;;;10384690;28;20213;-82
2022/08/29 11:19:48;;;;;;;9.20;8.33;;;24.80;94.70;;;;;;10390301;28;20280;-83
2022/08/29 11:24:59;;;;;;;8.70;8.10;;;24.80;95.10;;;;;;10383859;28;20215;-82
2022/08/29 11:30:06;;;;;;;9.27;8.57;;;24.80;95.40;;;;;;10392170;28;20226;-84
2022/08/29 11:35:16;;;;;;;9.20;8.33;;;24.70;95.00;;;;;;10393735;28;20198;-81
2022/08/29 11:40:36;;;;;;;9.13;8.43;;;24.80;93.70;;;;;;10381939;28;20206;-81
2022/08/29 11:45:42;;;;;;;8.60;8.10;;;24.80;94.70;;;;;;10367875;28;20246;-82
2022/08/29 11:50:45;;;;;;;8.87;8.07;;;24.80;94.80;;;;;;10387609;28;20566;-82
2022/08/29 11:56:21;;;;;;;9.40;8.70;;;24.80;94.70;;;;;;10400576;28;20230;-81
2022/08/29 12:01:59;;;;;;;8.77;8.00;;;24.80;92.90;;;;;;10390745;28;20289;-81
2022/08/29 12:07:03;;;;;;;9.97;9.27;;;24.70;95.00;;;;;;10392262;28;20230;-82
2022/08/29 12:12:35;;;;;;;8.93;8.13;;;24.70;93.70;;;;;;10386584;28;20250;-81
2022/08/29 12:17:46;;;;;;;8.73;8.07;;;24.60;95.10;;;;;;10404810;28;20237;-80
2022/08/29 12:22:58;;;;;;;10.00;9.13;;;24.50;94.90;;;;;;10386995;28;20264;-80
2022/08/29 12:28:06;;;;;;;8.90;8.40;;;24.50;95.80;;;;;;10345748;28;20272;-80
2022/08/29 12:33:19;;;;;;;9.00;8.20;;;24.50;94.80;;;;;;10362471;28;20262;-79
2022/08/29 12:38:34;;;;;;;8.60;8.10;;;24.50;93.40;;;;;;10359562;28;20425;-81
2022/08/29 12:43:41;;;;;;;8.53;7.83;;;24.60;94.80;;;;;;10372521;28;20202;-81
2022/08/29 12:48:50;;;;;;;6.90;6.40;;;24.60;92.90;;;;;;10383910;28;20219;-81
2022/08/29 12:53:52;;;;;;;9.10;8.30;;;24.70;91.70;;;;;;10421931;28;20194;-81
2022/08/29 12:58:58;;;;;;;8.90;8.20;;;24.80;91.80;;;;;;10409916;28;20277;-81
2022/08/29 13:04:03;;;;;;;8.70;8.13;;;25.00;91.60;;;;;;10422427;28;20197;-81
2022/08/29 13:09:06;;;;;;;8.97;8.37;;;25.00;92.10;;;;;;10385869;28;20690;-81
2022/08/29 13:14:12;;;;;;;8.77;7.93;;;25.00;92.40;;;;;;10416964;28;20568;-81
2022/08/29 13:19:21;;;;;;;9.23;8.53;;;24.90;91.90;;;;;;10382915;28;20221;-81
2022/08/29 13:24:23;;;;;;;8.80;8.30;;;25.00;90.60;;;;;;10396757;28;20540;-81
2022/08/29 13:29:31;;;;;;;8.40;7.90;;;25.00;91.50;;;;;;10418469;28;20249;-81
2022/08/29 13:34:33;;;;;;;8.87;8.07;;;25.10;89.70;;;;;;10383597;28;20535;-81
2022/08/29 13:39:39;;;;;;;8.20;7.50;;;25.20;90.00;;;;;;10379836;28;20711;-81
2022/08/29 13:44:59;;;;;;;8.30;7.90;;;25.20;90.80;;;;;;10403932;28;20273;-81
2022/08/29 13:50:05;;;;;;;8.50;7.90;;;25.10;91.80;;;;;;10339425;28;20804;-81
2022/08/29 13:55:09;;;;;;;8.50;7.80;;;25.10;90.40;;;;;;10350843;28;20321;-81
2022/08/29 14:00:14;;;;;;;8.97;8.23;;;25.20;89.10;;;;;;10403869;28;20240;-82
2022/08/29 14:05:17;;;;;;;7.53;6.93;;;25.20;91.30;;;;;;10376545;28;20202;-81
2022/08/29 14:10:20;;;;;;;8.80;8.00;;;25.40;90.70;;;;;;10386423;28;20196;-80
2022/08/29 14:15:23;;;;;;;8.47;7.87;;;25.70;90.00;;;;;;10409702;28;20205;-80
2022/08/29 14:20:25;;;;;;;8.53;7.90;;;26.00;89.80;;;;;;10380149;28;20199;-81
2022/08/29 14:25:27;;;;;;;8.60;7.90;;;26.20;89.10;;;;;;10379646;28;20257;-80
2022/08/29 14:30:31;;;;;;;8.30;7.80;;;26.20;87.60;;;;;;10417655;28;20201;-81
2022/08/29 14:35:34;;;;;;;6.00;5.50;;;26.20;87.00;;;;;;10378325;28;20202;-81
2022/08/29 14:40:36;;;;;;;6.43;5.83;;;26.20;86.60;;;;;;10383551;28;20226;-81
2022/08/29 14:45:40;;;;;;;7.30;6.60;;;26.10;88.70;;;;;;10379971;28;20695;-80
2022/08/29 14:50:42;;;;;;;8.77;7.90;;;26.00;88.10;;;;;;10396875;28;20656;-81
2022/08/29 14:55:44;;;;;;;5.93;5.43;;;25.80;89.80;;;;;;10389329;28;20214;-80
2022/08/29 15:00:48;;;;;;;8.83;8.23;;;25.70;87.00;;;;;;10389163;28;20245;-80
2022/08/29 15:05:50;;;;;;;8.67;8.07;;;25.60;90.20;;;;;;10397335;28;20670;-81
2022/08/29 15:10:52;;;;;;;7.40;6.90;;;25.40;89.50;;;;;;10386715;28;20191;-80
2022/08/29 15:15:55;;;;;;;7.80;7.30;;;25.30;89.70;;;;;;10366500;28;20214;-80
2022/08/29 15:20:57;;;;;;;7.40;6.90;;;25.30;87.90;;;;;;10419186;28;20308;-81
2022/08/29 15:26:00;;;;;;;8.23;7.73;;;25.20;88.90;;;;;;10383492;28;20223;-80
2022/08/29 15:31:03;;;;;;;9.33;8.63;;;25.10;90.50;;;;;;10421272;28;20225;-81
2022/08/29 15:36:05;;;;;;;8.00;7.50;;;25.10;90.00;;;;;;10405287;28;20288;-80
2022/08/29 15:41:08;;;;;;;7.73;7.20;;;25.10;87.80;;;;;;10406279;28;20233;-80
2022/08/29 15:46:11;;;;;;;8.17;7.47;;;25.10;88.10;;;;;;10379408;28;20310;-80
2022/08/29 15:51:13;;;;;;;8.70;7.80;;;25.10;88.30;;;;;;10392241;28;20236;-81
2022/08/29 15:56:16;;;;;;;7.57;7.07;;;25.20;86.80;;;;;;10351911;28;20218;-83
2022/08/29 16:01:19;;;;;;;7.20;6.80;;;25.30;86.50;;;;;;10407742;28;20248;-84
2022/08/29 16:06:22;;;;;;;7.17;6.70;;;25.20;90.50;;;;;;10395401;28;20218;-82
2022/08/29 16:11:24;;;;;;;7.87;7.17;;;25.30;84.80;;;;;;10441566;28;20202;-82
2022/08/29 16:16:28;;;;;;;6.93;6.40;;;25.30;86.70;;;;;;10383787;28;20306;-84
2022/08/29 16:21:32;;;;;;;6.50;6.10;;;25.20;86.40;;;;;;10396458;28;20258;-82
2022/08/29 16:26:35;;;;;;;7.80;7.30;;;25.20;90.10;;;;;;10385204;28;20257;-82
2022/08/29 16:31:39;;;;;;;7.80;7.30;;;25.20;90.30;;;;;;10367757;28;20219;-84
2022/08/29 16:36:42;;;;;;;5.90;5.50;;;25.20;88.80;;;;;;10397731;28;20214;-83
2022/08/29 16:41:44;;;;;;;7.13;6.73;;;25.30;85.70;;;;;;10391748;28;20577;-81
2022/08/29 16:46:48;;;;;;;7.17;6.67;;;25.30;88.20;;;;;;10405630;28;20286;-84
2022/08/29 16:51:50;;;;;;;7.60;7.10;;;25.40;87.50;;;;;;10371740;28;20680;-83
2022/08/29 16:56:53;;;;;;;6.77;6.23;;;25.30;88.30;;;;;;10355131;28;20598;-83
2022/08/29 17:01:56;;;;;;;7.37;6.90;;;25.30;88.00;;;;;;10383753;28;20238;-83
2022/08/29 17:06:58;;;;;;;6.90;6.50;;;25.20;88.20;;;;;;10390956;28;20234;-83
2022/08/29 17:17:03;;;;;;;7.40;6.70;;;25.00;90.20;;;;;;10372598;28;20249;-79
2022/08/29 17:22:05;;;;;;;6.30;5.90;;;25.00;85.80;;;;;;10390904;28;20204;-82
2022/08/29 17:27:08;;;;;;;7.17;6.77;;;24.90;90.30;;;;;;10374541;28;20729;-81
2022/08/29 17:32:12;;;;;;;7.97;7.17;;;24.80;91.00;;;;;;10354683;28;20639;-80
2022/08/29 17:37:14;;;;;;;7.03;6.50;;;24.70;92.10;;;;;;10379453;28;20215;-79
2022/08/29 17:42:16;;;;;;;6.80;6.30;;;24.60;90.10;;;;;;10387090;28;20281;-78
2022/08/29 17:47:20;;;;;;;7.07;6.50;;;24.60;90.60;;;;;;10378084;28;20277;-79
2022/08/29 17:52:22;;;;;;;7.50;6.90;;;24.50;90.30;;;;;;10387235;28;20726;-81
2022/08/29 17:57:24;;;;;;;7.00;6.40;;;24.40;91.10;;;;;;10381344;28;20233;-81
2022/08/29 18:02:30;;;;;;;7.27;6.70;;;24.30;91.10;;;;;;10388837;28;20199;-81
2022/08/29 18:07:32;;;;;;;6.90;6.40;;;24.20;91.60;;;;;;10375580;28;20250;-80
2022/08/29 18:12:34;;;;;;;6.90;6.20;;;24.10;91.50;;;;;;10383445;28;20229;-80
2022/08/29 18:17:39;;;;;;;7.50;6.97;;;24.00;92.00;;;;;;10377472;28;20222;-80
2022/08/29 18:22:42;;;;;;;7.27;6.83;;;23.90;92.30;;;;;;10384453;28;20568;-80
2022/08/29 18:27:44;;;;;;;7.30;6.80;;;23.80;92.70;;;;;;10390489;28;20226;-80
2022/08/29 18:32:47;;;;;;;7.60;7.00;;;23.70;92.80;;;;;;10352924;28;20346;-80
2022/08/29 18:37:50;;;;;;;7.70;7.00;;;23.60;92.50;;;;;;10390724;28;20218;-80
2022/08/29 18:42:52;;;;;;;6.13;5.50;;;23.50;92.80;;;;;;10378505;28;20191;-80
2022/08/29 18:47:55;;;;;;;7.67;6.90;;;23.50;93.10;;;;;;10389102;28;20232;-80
2022/08/29 18:52:57;;;;;;;9.10;7.20;;;23.40;93.20;;;;;;10379198;28;20198;-80
2022/08/29 18:58:00;;;;;;;7.70;7.00;;;23.30;93.30;;;;;;10369003;28;20222;-80
2022/08/29 19:03:05;;;;;;;7.00;6.30;;;23.20;93.40;;;;;;10380125;28;20214;-80
2022/08/29 19:08:10;;;;;;;7.97;7.30;;;23.20;93.30;;;;;;10380882;28;20226;-79
2022/08/29 19:13:12;;;;;;;8.07;7.37;;;23.10;93.50;;;;;;10357704;28;20317;-82
2022/08/29 19:18:17;;;;;;;8.40;7.80;;;23.00;93.40;;;;;;10356596;28;20717;-79
2022/08/29 19:23:21;;;;;;;7.70;7.10;;;22.90;93.60;;;;;;10351846;28;20209;-79
2022/08/29 19:28:23;;;;;;;7.87;7.33;;;22.90;93.90;;;;;;10379537;28;20230;-80
2022/08/29 19:33:27;;;;;;;8.37;7.57;;;22.80;93.90;;;;;;10390753;28;20290;-80
2022/08/29 19:38:30;;;;;;;7.97;7.37;;;22.80;94.20;;;;;;10387552;28;20657;-80
2022/08/29 19:43:34;;;;;;;8.70;7.90;;;22.70;94.20;;;;;;10391326;28;20675;-80
2022/08/29 19:48:37;;;;;;;8.30;7.60;;;22.70;93.80;;;;;;10366988;28;20777;-80
2022/08/29 19:53:41;;;;;;;11.57;7.43;;;22.60;94.40;;;;;;10399904;28;20207;-80
2022/08/29 19:58:43;;;;;;;7.80;7.10;;;22.50;94.30;;;;;;10400163;28;20225;-80
2022/08/29 20:03:46;;;;;;;8.37;7.43;;;22.50;94.30;;;;;;10358506;28;20195;-80
2022/08/29 20:08:48;;;;;;;8.60;7.80;;;22.50;94.20;;;;;;10385335;28;20710;-79
2022/08/29 20:13:55;;;;;;;8.90;8.20;;;22.40;94.20;;;;;;10375951;28;20257;-80
2022/08/29 20:19:01;;;;;;;8.50;7.70;;;22.40;94.40;;;;;;10356145;28;20223;-79
2022/08/29 20:24:04;;;;;;;8.43;7.70;;;22.30;94.90;;;;;;10386439;28;20227;-79
2022/08/29 20:29:11;;;;;;;8.20;7.43;;;22.30;94.50;;;;;;10393901;28;20226;-79
2022/08/29 20:34:15;;;;;;;8.53;7.73;;;22.20;94.50;;;;;;10363911;28;20302;-79
2022/08/29 20:39:19;;;;;;;7.90;7.30;;;22.20;94.60;;;;;;10361950;28;20222;-79
2022/08/29 20:44:22;;;;;;;8.97;8.10;;;22.20;94.50;;;;;;10383231;28;20693;-80
2022/08/29 20:49:26;;;;;;;7.53;6.90;;;22.10;94.90;;;;;;10357239;28;20230;-80
2022/08/29 20:54:29;;;;;;;7.57;6.87;;;22.10;94.80;;;;;;10372850;28;20586;-80
2022/08/29 20:59:31;;;;;;;7.13;6.53;;;22.10;94.60;;;;;;10385562;28;20665;-78
2022/08/29 21:09:54;;;;;;;6.10;5.70;;;22.10;95.00;;;;;;10376643;28;20225;-79
2022/08/29 21:14:56;;;;;;;7.97;7.40;;;22.10;94.80;;;;;;10374652;28;20214;-79
2022/08/29 21:20:00;;;;;;;7.50;6.97;;;22.10;95.10;;;;;;10382101;28;20222;-77
2022/08/29 21:25:02;;;;;;;8.93;8.10;;;22.10;95.20;;;;;;10385055;28;20257;-80
2022/08/29 21:30:05;;;;;;;9.40;7.93;;;22.20;95.00;;;;;;10380958;28;20660;-80
2022/08/29 21:35:09;;;;;;;8.30;7.60;;;22.20;95.30;;;;;;10383807;28;20600;-79
2022/08/29 21:40:11;;;;;;;8.80;8.00;;;22.20;95.40;;;;;;10377203;28;20224;-80
2022/08/29 21:45:14;;;;;;;8.27;7.60;;;22.20;95.10;;;;;;10382746;28;20585;-80
2022/08/29 21:50:18;;;;;;;7.80;7.20;;;22.20;95.10;;;;;;10374743;28;20720;-79
2022/08/29 21:55:21;;;;;;;7.77;7.27;;;22.20;95.10;;;;;;10378247;28;20281;-79
2022/08/29 22:00:26;;;;;;;8.50;7.90;;;22.20;95.30;;;;;;10357807;28;20281;-79
2022/08/29 22:05:31;;;;;;;7.57;7.07;;;22.10;95.00;;;;;;10371559;28;20206;-81
2022/08/29 22:10:36;;;;;;;8.40;7.60;;;22.10;94.90;;;;;;10394329;28;20222;-80
2022/08/29 22:21:08;;;;;;;7.57;6.70;;;22.00;94.80;;;;;;10377701;28;20655;-83
2022/08/29 22:26:10;;;;;;;6.87;6.17;;;21.90;94.50;;;;;;10363696;28;20225;-83
2022/08/29 22:31:13;;;;;;;7.00;6.50;;;21.80;94.70;;;;;;10395403;28;20246;-83
2022/08/29 22:36:17;;;;;;;7.00;6.50;;;21.80;94.40;;;;;;10395971;28;20272;-83
2022/08/29 22:41:21;;;;;;;7.53;6.90;;;21.70;94.40;;;;;;10371191;28;20205;-82
2022/08/29 22:46:25;;;;;;;7.33;6.50;;;21.70;95.00;;;;;;10378041;28;20222;-82
2022/08/29 22:51:29;;;;;;;7.43;6.00;;;21.70;94.60;;;;;;10370549;28;20221;-82
2022/08/29 22:56:32;;;;;;;6.70;6.20;;;21.60;94.00;;;;;;10360872;28;20562;-83
2022/08/29 23:01:37;;;;;;;7.00;6.50;;;21.60;94.40;;;;;;10386395;28;20237;-83
2022/08/29 23:06:40;;;;;;;6.67;6.03;;;21.50;94.80;;;;;;10358920;28;20316;-83
2022/08/29 23:11:43;;;;;;;6.43;5.93;;;21.40;94.80;;;;;;10367273;28;20320;-80
2022/08/29 23:16:45;;;;;;;7.03;6.40;;;21.40;94.70;;;;;;10359022;28;20250;-81
2022/08/29 23:21:48;;;;;;;6.87;6.17;;;21.30;94.40;;;;;;10373437;28;20222;-79
2022/08/29 23:26:50;;;;;;;6.60;6.00;;;21.30;94.50;;;;;;10393890;28;20261;-83
2022/08/29 23:31:52;;;;;;;8.60;6.13;;;21.20;94.70;;;;;;10392121;28;20207;-82
2022/08/29 23:36:56;;;;;;;7.27;6.77;;;21.20;94.40;;;;;;10397276;28;20207;-83
2022/08/29 23:41:58;;;;;;;7.57;6.93;;;21.10;94.60;;;;;;10389092;28;20203;-83
2022/08/29 23:47:00;;;;;;;6.37;5.90;;;21.00;94.80;;;;;;10399706;28;20305;-82
2022/08/29 23:52:04;;;;;;;9.40;6.70;;;21.00;94.50;;;;;;10389460;28;20253;-81
2022/08/29 23:57:07;;;;;;;10.83;6.63;;;21.00;94.30;;;;;;10377071;28;20246;-82
